createdAt,value
2022-10-18T00:04:50.187Z,16.98
2022-10-18T00:07:40.053Z,53.05
2022-10-18T00:13:08.632Z,18.90
2022-10-18T00:15:57.862Z,27.48
2022-10-18T00:18:29.901Z,34.25
2022-10-18T00:21:02.157Z,7.05
2022-10-18T00:23:45.748Z,9.00
2022-10-18T00:26:27.289Z,9.32
2022-10-18T00:29:10.188Z,16.70
2022-10-18T00:31:43.486Z,7.78
2022-10-18T00:36:45.831Z,12.25
2022-10-18T00:39:21.714Z,17.77
2022-10-18T00:41:54.913Z,28.90
2022-10-18T00:44:21.896Z,22.05
2022-10-18T00:53:07.529Z,18.23
2022-10-18T00:55:37.555Z,27.30
2022-10-18T00:58:19.686Z,27.08
2022-10-18T01:00:51.456Z,12.07
2022-10-18T01:03:20.637Z,20.45
2022-10-18T01:06:10.619Z,19.45
2022-10-18T01:12:05.503Z,15.00
2022-10-18T01:17:40.105Z,12.65
2022-10-18T01:21:06.013Z,24.50
2022-10-18T01:26:51.567Z,9.73
2022-10-18T01:33:20.688Z,33.42
2022-10-18T01:36:28.250Z,25.60
2022-10-18T01:39:01.768Z,32.33
2022-10-18T01:41:44.841Z,71.10
2022-10-18T01:50:01.721Z,12.30
2022-10-18T01:52:32.672Z,12.38
2022-10-18T01:55:36.374Z,46.45
2022-10-18T02:01:14.526Z,13.40
2022-10-18T02:06:56.893Z,20.65
2022-10-18T02:10:18.660Z,45.92
2022-10-18T02:13:27.521Z,50.67
2022-10-18T02:15:54.134Z,31.15
2022-10-18T02:18:25.565Z,55.08
2022-10-18T02:20:57.754Z,46.63
2022-10-18T02:23:40.067Z,76.57
2022-10-18T02:26:20.339Z,66.03
2022-10-18T02:29:32.410Z,133.80
2022-10-18T02:32:13.936Z,66.63
2022-10-18T02:35:53.572Z,42.25
2022-10-18T02:37:43.924Z,28.42
2022-10-18T02:40:16.670Z,18.17
2022-10-18T02:43:05.733Z,10.60
2022-10-18T02:45:36.076Z,46.05
2022-10-18T02:48:05.455Z,19.48
2022-10-18T02:50:37.975Z,19.65
2022-10-18T02:53:11.614Z,31.48
2022-10-18T02:55:42.930Z,17.05
2022-10-18T03:04:21.802Z,28.20
2022-10-18T03:06:53.200Z,8.52
2022-10-18T03:09:28.570Z,35.80
2022-10-18T03:12:03.700Z,36.70
2022-10-18T03:14:37.051Z,31.20
2022-10-18T03:19:42.706Z,29.17
2022-10-18T03:25:06.659Z,22.38
2022-10-18T03:27:40.329Z,41.50
2022-10-18T03:30:23.961Z,24.25
2022-10-18T03:32:57.153Z,36.20
2022-10-18T03:35:40.074Z,36.15
2022-10-18T03:38:11.349Z,16.90
2022-10-18T03:40:47.638Z,15.18
2022-10-18T03:43:27.197Z,16.73
2022-10-18T03:49:29.322Z,17.58
2022-10-18T03:52:00.602Z,18.08
2022-10-18T03:54:54.199Z,8.90
2022-10-18T04:00:39.346Z,15.05
2022-10-18T04:03:14.794Z,16.50
2022-10-18T04:20:49.712Z,7.00
2022-10-18T04:29:28.204Z,27.35
2022-10-18T04:32:01.017Z,20.52
2022-10-18T04:34:28.097Z,22.15
2022-10-18T04:37:02.890Z,37.97
2022-10-18T04:42:29.909Z,19.77
2022-10-18T04:45:02.109Z,37.58
2022-10-18T04:47:44.931Z,40.53
2022-10-18T04:50:16.326Z,22.05
2022-10-18T04:52:55.758Z,30.55
2022-10-18T04:55:27.556Z,33.85
2022-10-18T04:57:54.609Z,18.83
2022-10-18T05:03:23.954Z,16.70
2022-10-18T05:06:03.011Z,13.45
2022-10-18T05:08:45.461Z,15.32
2022-10-18T05:11:19.280Z,7.93
2022-10-18T05:25:45.719Z,9.05
2022-10-18T05:28:38.342Z,18.15
2022-10-18T05:31:30.237Z,16.70
2022-10-18T05:34:15.982Z,19.83
2022-10-18T05:43:34.196Z,16.80
2022-10-18T05:46:45.270Z,18.92
2022-10-18T05:48:56.051Z,19.83
2022-10-18T05:52:10.644Z,20.40
2022-10-18T05:57:22.362Z,49.30
2022-10-18T06:00:16.217Z,31.23
2022-10-18T06:03:05.866Z,24.00
2022-10-18T06:08:20.929Z,61.97
2022-10-18T06:11:12.175Z,82.70
2022-10-18T06:13:42.762Z,47.92
2022-10-18T06:16:13.751Z,43.85
2022-10-18T06:18:40.944Z,38.95
2022-10-18T06:21:08.015Z,45.80
2022-10-18T06:23:38.073Z,36.03
2022-10-18T06:26:19.576Z,35.25
2022-10-18T06:28:49.415Z,35.28
2022-10-18T06:31:29.276Z,21.40
2022-10-18T06:34:05.763Z,24.23
2022-10-18T06:36:49.483Z,33.30
2022-10-18T06:39:16.553Z,33.33
2022-10-18T06:41:43.688Z,18.33
2022-10-18T06:44:14.615Z,34.90
2022-10-18T06:46:53.455Z,31.98
2022-10-18T06:52:26.688Z,31.25
2022-10-18T06:54:59.006Z,28.23
2022-10-18T06:57:29.636Z,14.85
2022-10-18T06:59:56.899Z,9.35
2022-10-18T07:02:40.669Z,33.38
2022-10-18T07:05:08.207Z,29.30
2022-10-18T07:07:40.857Z,12.48
2022-10-18T07:10:14.176Z,21.08
2022-10-18T07:12:41.191Z,32.22
2022-10-18T07:18:36.607Z,7.47
2022-10-18T07:21:16.542Z,6.82
2022-10-18T07:26:42.318Z,11.93
2022-10-18T07:29:11.183Z,6.55
2022-10-18T07:31:41.709Z,7.72
2022-10-18T07:34:16.909Z,6.50
2022-10-18T07:37:41.864Z,13.18
2022-10-18T07:39:47.977Z,8.20
2022-10-18T07:42:15.012Z,7.20
2022-10-18T07:44:55.959Z,8.30
2022-10-18T07:47:23.012Z,9.70
2022-10-18T07:49:54.114Z,9.13
2022-10-18T07:52:29.974Z,14.50
2022-10-18T07:54:56.987Z,12.43
2022-10-18T07:57:24.061Z,7.68
2022-10-18T08:00:00.429Z,11.77
2022-10-18T08:05:21.192Z,8.15
2022-10-18T08:07:48.385Z,9.18
2022-10-18T08:10:15.485Z,10.32
2022-10-18T08:13:12.337Z,10.07
2022-10-18T08:15:59.778Z,8.90
2022-10-18T08:18:39.630Z,9.27
2022-10-18T08:21:08.251Z,11.63
2022-10-18T08:24:28.110Z,11.52
2022-10-18T08:27:00.043Z,15.50
2022-10-18T08:29:31.514Z,8.40
2022-10-18T08:32:09.539Z,9.63
2022-10-18T08:37:13.139Z,6.63
2022-10-18T08:39:49.198Z,14.30
2022-10-18T08:42:57.400Z,18.80
2022-10-18T08:45:41.092Z,10.30
2022-10-18T08:48:17.662Z,9.27
2022-10-18T08:50:45.336Z,9.63
2022-10-18T08:53:40.336Z,13.73
2022-10-18T08:56:31.471Z,8.27
2022-10-18T08:58:58.467Z,8.80
2022-10-18T09:01:44.205Z,8.80
2022-10-18T09:04:30.270Z,14.98
2022-10-18T09:07:14.369Z,8.25
2022-10-18T09:09:44.396Z,10.82
2022-10-18T09:12:38.814Z,7.40
2022-10-18T09:15:24.720Z,9.00
2022-10-18T09:18:00.105Z,10.68
2022-10-18T09:20:30.435Z,9.07
2022-10-18T09:23:10.176Z,9.40
2022-10-18T09:25:41.425Z,7.63
2022-10-18T09:28:08.969Z,11.50
2022-10-18T09:31:04.306Z,7.68
2022-10-18T09:33:40.484Z,7.72
2022-10-18T09:36:40.725Z,8.05
2022-10-18T09:39:15.280Z,8.45
2022-10-18T09:44:38.528Z,8.50
2022-10-18T09:47:28.853Z,12.88
2022-10-18T09:50:02.555Z,4.85
2022-10-18T09:55:28.463Z,8.10
2022-10-18T09:58:01.577Z,12.43
2022-10-18T10:03:21.842Z,8.57
2022-10-18T10:06:12.165Z,9.82
2022-10-18T10:09:02.597Z,13.52
2022-10-18T10:11:48.995Z,8.25
2022-10-18T10:14:27.240Z,10.50
2022-10-18T10:16:59.108Z,16.33
2022-10-18T10:22:35.935Z,5.68
2022-10-18T10:25:30.783Z,6.82
2022-10-18T10:28:19.784Z,5.47
2022-10-18T10:30:52.717Z,6.82
2022-10-18T10:37:23.864Z,7.30
2022-10-18T10:40:24.085Z,4.55
2022-10-18T10:43:04.300Z,4.53
2022-10-18T10:49:27.775Z,7.55
2022-10-18T10:52:08.693Z,5.50
2022-10-18T10:55:34.928Z,5.75
2022-10-18T10:58:02.655Z,6.63
2022-10-18T11:00:41.721Z,8.05
2022-10-18T11:03:29.610Z,3.15
2022-10-18T11:09:41.059Z,9.05
2022-10-18T11:12:23.700Z,13.07
2022-10-18T11:14:54.129Z,2.67
2022-10-18T11:17:40.555Z,4.20
2022-10-18T11:20:21.873Z,2.20
2022-10-18T11:23:09.437Z,5.72
2022-10-18T11:25:54.484Z,4.75
2022-10-18T11:28:36.678Z,5.97
2022-10-18T11:31:21.956Z,5.65
2022-10-18T11:34:08.797Z,9.35
2022-10-18T11:37:09.123Z,9.07
2022-10-18T11:39:42.857Z,6.03
2022-10-18T11:42:48.624Z,9.10
2022-10-18T11:48:16.293Z,7.03
2022-10-18T11:50:57.044Z,4.28
2022-10-18T11:53:51.751Z,7.22
2022-10-18T11:56:54.720Z,2.72
2022-10-18T11:59:38.295Z,2.78
2022-10-18T12:02:27.917Z,4.88
2022-10-18T12:05:22.082Z,6.47
2022-10-18T12:11:05.881Z,9.23
2022-10-18T12:13:54.656Z,9.35
2022-10-18T12:16:50.113Z,6.32
2022-10-18T12:19:26.737Z,6.38
2022-10-18T12:21:58.862Z,2.30
2022-10-18T12:24:34.836Z,5.45
2022-10-18T12:27:05.490Z,2.17
2022-10-18T12:29:34.036Z,5.38
2022-10-18T12:32:56.510Z,3.75
2022-10-18T12:36:00.387Z,3.67
2022-10-18T12:41:29.096Z,3.97
2022-10-18T12:44:17.949Z,4.43
2022-10-18T12:46:48.942Z,8.18
2022-10-18T12:49:22.616Z,5.07
2022-10-18T12:52:02.943Z,4.20
2022-10-18T12:54:31.077Z,3.88
2022-10-18T12:57:07.037Z,2.58
2022-10-18T12:59:39.097Z,1.40
2022-10-18T13:02:10.448Z,2.63
2022-10-18T13:04:40.696Z,5.07
2022-10-18T13:07:44.823Z,1.15
2022-10-18T13:10:17.952Z,2.35
2022-10-18T13:15:33.501Z,4.38
2022-10-18T13:18:11.796Z,5.28
2022-10-18T13:21:02.724Z,3.42
2022-10-18T13:23:49.023Z,5.03
2022-10-18T13:26:32.293Z,1.70
2022-10-18T13:29:14.572Z,4.35
2022-10-18T13:31:51.759Z,2.50
2022-10-18T13:34:24.793Z,4.00
2022-10-18T13:37:22.801Z,3.53
2022-10-18T13:39:49.905Z,5.20
2022-10-18T13:42:34.173Z,1.33
2022-10-18T13:45:20.143Z,6.07
2022-10-18T13:51:22.155Z,3.28
2022-10-18T13:54:37.194Z,4.20
2022-10-18T13:56:58.024Z,5.10
2022-10-18T14:11:07.269Z,3.30
2022-10-18T14:13:45.855Z,3.88
2022-10-18T14:16:41.518Z,3.63
2022-10-18T14:19:53.838Z,6.38
2022-10-18T14:25:40.456Z,3.87
2022-10-18T14:30:59.022Z,3.65
2022-10-18T14:33:28.560Z,5.40
2022-10-18T14:36:15.815Z,2.30
2022-10-18T14:39:02.416Z,2.60
2022-10-18T14:41:48.993Z,2.10
2022-10-18T14:44:16.361Z,5.72
2022-10-18T14:47:09.302Z,5.10
2022-10-18T14:49:42.603Z,3.57
2022-10-18T14:52:26.413Z,3.22
2022-10-18T14:57:42.250Z,2.42
2022-10-18T15:00:09.811Z,4.38
2022-10-18T15:02:41.595Z,6.40
2022-10-18T15:08:42.255Z,4.40
2022-10-18T15:11:14.191Z,3.88
2022-10-18T15:13:58.712Z,3.53
2022-10-18T15:16:27.383Z,6.90
2022-10-18T15:25:07.811Z,11.35
2022-10-18T15:27:43.891Z,7.20
2022-10-18T15:30:37.483Z,3.65
2022-10-18T15:33:11.994Z,4.97
2022-10-18T15:35:47.939Z,4.90
2022-10-18T15:38:36.937Z,8.38
2022-10-18T15:44:32.071Z,3.35
2022-10-18T15:47:11.102Z,7.80
2022-10-18T15:50:18.779Z,7.63
2022-10-18T15:52:45.888Z,2.40
2022-10-18T15:55:41.523Z,6.20
2022-10-18T15:58:22.577Z,8.40
2022-10-18T16:01:06.474Z,4.32
2022-10-18T16:06:21.388Z,4.13
2022-10-18T16:08:54.825Z,3.28
2022-10-18T16:11:33.709Z,10.77
2022-10-18T16:14:00.897Z,8.13
2022-10-18T16:16:34.031Z,7.88
2022-10-18T16:19:44.667Z,7.13
2022-10-18T16:22:14.650Z,3.67
2022-10-18T16:24:41.701Z,6.90
2022-10-18T16:27:10.683Z,4.53
2022-10-18T16:29:37.686Z,7.40
2022-10-18T16:32:07.519Z,6.65
2022-10-18T16:34:50.381Z,8.98
2022-10-18T16:37:32.760Z,5.90
2022-10-18T16:42:56.626Z,8.80
2022-10-18T16:45:23.646Z,8.57
2022-10-18T16:47:50.971Z,6.70
2022-10-18T16:50:19.648Z,4.88
2022-10-18T16:52:51.155Z,8.63
2022-10-18T17:10:03.906Z,13.20
2022-10-18T17:12:36.729Z,3.55
2022-10-18T17:15:08.005Z,10.73
2022-10-18T17:20:30.473Z,7.18
2022-10-18T17:23:03.118Z,7.43
2022-10-18T17:28:20.115Z,11.50
2022-10-18T17:30:54.818Z,9.20
2022-10-18T17:33:38.582Z,9.13
2022-10-18T17:36:09.067Z,9.32
2022-10-18T17:38:43.220Z,9.45
2022-10-18T17:41:11.098Z,7.75
2022-10-18T17:43:51.143Z,2.72
2022-10-18T17:46:24.514Z,10.02
2022-10-18T17:51:28.472Z,3.78
2022-10-18T17:54:01.654Z,4.88
2022-10-18T17:56:33.278Z,5.05
2022-10-18T17:59:21.465Z,5.65
2022-10-18T18:04:56.143Z,12.65
2022-10-18T18:07:27.556Z,10.35
2022-10-18T18:09:57.306Z,3.00
2022-10-18T18:12:37.831Z,3.03
2022-10-18T18:15:10.014Z,3.65
2022-10-18T18:17:56.753Z,9.65
2022-10-18T18:23:13.917Z,8.32
2022-10-18T18:25:45.702Z,8.38
2022-10-18T18:28:12.711Z,8.25
2022-10-18T18:30:47.189Z,4.78
2022-10-18T18:33:23.888Z,7.40
2022-10-18T18:36:15.849Z,5.63
2022-10-18T18:38:58.081Z,5.43
2022-10-18T18:41:34.505Z,6.43
2022-10-18T18:44:02.868Z,5.07
2022-10-18T18:49:17.244Z,4.85
2022-10-18T18:51:55.920Z,2.65
2022-10-18T18:54:29.523Z,7.38
2022-10-18T18:57:22.010Z,3.88
2022-10-18T18:59:59.434Z,2.72
2022-10-18T19:02:30.711Z,5.28
2022-10-18T19:07:50.367Z,3.53
2022-10-18T19:10:21.762Z,4.05
2022-10-18T19:12:53.088Z,3.22
2022-10-18T19:15:26.919Z,9.10
2022-10-18T19:17:57.890Z,3.72
2022-10-18T19:23:12.417Z,2.38
2022-10-18T19:25:41.780Z,2.95
2022-10-18T19:28:19.368Z,2.47
2022-10-18T19:30:59.099Z,6.65
2022-10-18T19:33:48.439Z,2.08
2022-10-18T19:36:34.717Z,2.20
2022-10-18T19:39:30.662Z,2.70
2022-10-18T19:42:08.782Z,2.45
2022-10-18T19:44:38.182Z,2.85
2022-10-18T19:50:33.717Z,5.18
2022-10-18T19:53:11.898Z,7.97
2022-10-18T19:59:03.857Z,8.32
2022-10-18T20:01:33.389Z,5.55
2022-10-18T20:04:06.545Z,7.10
2022-10-18T20:06:36.643Z,6.60
2022-10-18T20:09:07.368Z,4.85
2022-10-18T20:14:53.740Z,3.05
2022-10-18T20:17:23.009Z,4.05
2022-10-18T20:20:03.564Z,5.85
2022-10-18T20:22:43.704Z,5.50
2022-10-18T20:25:13.082Z,8.05
2022-10-18T20:30:31.011Z,2.65
2022-10-18T20:33:06.056Z,4.47
2022-10-18T20:35:39.177Z,3.97
2022-10-18T20:38:11.512Z,4.65
2022-10-18T20:40:41.520Z,2.90
2022-10-18T20:43:11.036Z,5.88
2022-10-18T20:45:40.880Z,3.97
2022-10-18T20:48:07.903Z,4.72
2022-10-18T20:50:54.660Z,9.65
2022-10-18T20:53:35.765Z,5.13
2022-10-18T20:56:21.986Z,4.63
2022-10-18T20:59:00.842Z,4.00
2022-10-18T21:01:32.189Z,12.20
2022-10-18T21:04:05.393Z,16.65
2022-10-18T21:06:37.679Z,5.15
2022-10-18T21:09:19.275Z,5.07
2022-10-18T21:14:39.809Z,6.38
2022-10-18T21:17:42.995Z,3.08
2022-10-18T21:22:53.904Z,6.72
2022-10-18T21:25:27.943Z,4.47
2022-10-18T21:27:57.683Z,5.00
2022-10-18T21:30:29.893Z,1.90
2022-10-18T21:35:52.420Z,6.28
2022-10-18T21:38:21.127Z,1.75
2022-10-18T21:40:53.447Z,4.15
2022-10-18T21:43:20.455Z,2.97
2022-10-18T21:45:51.698Z,5.90
2022-10-18T21:51:05.162Z,1.38
2022-10-18T21:53:32.933Z,2.47
2022-10-18T21:56:19.523Z,8.90
2022-10-18T21:58:48.373Z,1.38
2022-10-18T22:01:35.064Z,4.43
2022-10-18T22:04:31.810Z,2.50
2022-10-18T22:07:23.858Z,7.20
2022-10-18T22:09:52.612Z,9.00
2022-10-18T22:12:25.131Z,11.18
2022-10-18T22:14:52.192Z,5.03
2022-10-18T22:17:21.363Z,8.05
2022-10-18T22:19:52.535Z,5.60
2022-10-18T22:25:12.331Z,2.95
2022-10-18T22:27:43.265Z,2.35
2022-10-18T22:30:15.958Z,2.88
2022-10-18T22:32:53.594Z,3.50
2022-10-18T22:35:26.322Z,4.03
2022-10-18T22:37:54.402Z,8.07
2022-10-18T22:40:38.225Z,3.90
2022-10-18T22:48:23.202Z,7.75
2022-10-18T22:50:54.388Z,4.28
2022-10-18T22:53:25.853Z,4.18
2022-10-18T22:56:04.118Z,3.78
2022-10-18T22:58:47.199Z,9.68
2022-10-18T23:01:16.536Z,1.55
2022-10-18T23:03:53.707Z,13.60
2022-10-18T23:06:47.425Z,13.48
2022-10-18T23:09:19.482Z,8.10
2022-10-18T23:11:52.193Z,9.23
2022-10-18T23:14:49.129Z,3.53
2022-10-18T23:17:22.103Z,4.38
2022-10-18T23:20:13.439Z,5.93
2022-10-18T23:22:45.127Z,4.00
2022-10-18T23:25:16.786Z,3.50
2022-10-18T23:27:53.549Z,3.28
2022-10-18T23:30:26.764Z,2.70
2022-10-18T23:33:04.147Z,3.05
2022-10-18T23:35:48.829Z,5.05
2022-10-18T23:38:27.278Z,14.10
2022-10-18T23:40:57.938Z,5.68
2022-10-18T23:43:26.865Z,4.32
2022-10-18T23:46:02.664Z,10.57
2022-10-18T23:48:41.074Z,5.55
2022-10-18T23:51:08.859Z,4.53
2022-10-18T23:56:34.460Z,4.65
2022-10-18T23:59:16.496Z,10.50
